createdAt,value
2023-11-30T00:00:56.656Z,95.98
2023-11-30T00:04:18.699Z,95.30
2023-11-30T00:07:40.543Z,94.82
2023-11-30T00:11:02.441Z,95.06
2023-11-30T00:14:25.666Z,94.11
2023-11-30T00:17:47.156Z,93.45
2023-11-30T00:21:09.166Z,95.34
2023-11-30T00:24:30.768Z,96.05
2023-11-30T00:27:52.717Z,94.45
2023-11-30T00:31:15.950Z,95.41
2023-11-30T00:34:37.730Z,93.98
2023-11-30T00:37:59.113Z,94.02
2023-11-30T00:41:20.709Z,95.33
2023-11-30T00:44:43.856Z,94.98
2023-11-30T00:48:07.668Z,95.95
2023-11-30T00:51:30.742Z,95.75
2023-11-30T00:54:52.805Z,95.28
2023-11-30T00:58:14.664Z,93.38
2023-11-30T01:01:36.675Z,92.31
2023-11-30T01:04:59.978Z,92.43
2023-11-30T01:08:21.866Z,93.04
2023-11-30T01:11:44.640Z,92.86
2023-11-30T01:15:07.247Z,93.78
2023-11-30T01:18:29.228Z,94.08
2023-11-30T01:21:52.296Z,92.83
2023-11-30T01:25:15.091Z,93.15
2023-11-30T01:28:36.969Z,94.01
2023-11-30T01:31:58.810Z,94.10
2023-11-30T01:35:20.568Z,93.37
2023-11-30T01:38:43.218Z,92.93
2023-11-30T01:42:06.040Z,93.35
2023-11-30T01:45:28.596Z,93.23
2023-11-30T01:48:50.672Z,93.55
2023-11-30T01:52:14.436Z,94.01
2023-11-30T01:55:38.120Z,95.03
2023-11-30T01:58:59.911Z,95.67
2023-11-30T02:02:21.942Z,94.96
2023-11-30T02:05:44.581Z,95.31
2023-11-30T02:09:06.648Z,94.57
2023-11-30T02:12:29.702Z,94.35
2023-11-30T02:15:51.525Z,93.94
2023-11-30T02:19:13.665Z,92.03
2023-11-30T02:22:36.849Z,91.58
2023-11-30T02:25:58.371Z,90.84
2023-11-30T02:29:20.820Z,91.91
2023-11-30T02:32:42.852Z,90.32
2023-11-30T02:36:04.934Z,91.63
2023-11-30T02:39:28.272Z,92.00
2023-11-30T02:42:50.159Z,92.24
2023-11-30T02:46:12.377Z,90.67
2023-11-30T02:49:33.997Z,90.59
2023-11-30T02:52:55.856Z,92.22
2023-11-30T02:56:18.724Z,89.90
2023-11-30T02:59:40.059Z,90.71
2023-11-30T03:03:01.639Z,91.37
2023-11-30T03:06:23.763Z,91.55
2023-11-30T03:09:45.870Z,92.33
2023-11-30T03:13:08.871Z,91.70
2023-11-30T03:16:30.725Z,91.20
2023-11-30T03:19:52.537Z,91.30
2023-11-30T03:23:14.495Z,91.97
2023-11-30T03:26:35.723Z,91.59
2023-11-30T03:29:58.602Z,92.06
2023-11-30T03:33:20.732Z,91.85
2023-11-30T03:36:42.582Z,91.75
2023-11-30T03:40:04.447Z,91.97
2023-11-30T03:43:26.136Z,91.85
2023-11-30T03:46:48.969Z,92.22
2023-11-30T03:50:11.594Z,91.50
2023-11-30T03:53:33.250Z,91.37
2023-11-30T03:56:56.852Z,91.63
2023-11-30T04:00:19.542Z,91.17
2023-11-30T04:03:42.562Z,91.21
2023-11-30T04:07:04.525Z,91.11
2023-11-30T04:10:26.619Z,90.79
2023-11-30T04:13:49.435Z,90.11
2023-11-30T04:17:11.867Z,89.03
2023-11-30T04:20:35.873Z,89.57
2023-11-30T04:23:57.836Z,89.42
2023-11-30T04:27:19.866Z,89.33
2023-11-30T04:30:42.124Z,89.45
2023-11-30T04:34:04.368Z,90.05
2023-11-30T04:37:27.436Z,89.71
2023-11-30T04:40:48.993Z,89.95
2023-11-30T04:44:10.306Z,90.09
2023-11-30T04:47:31.715Z,90.40
2023-11-30T04:50:53.833Z,89.64
2023-11-30T04:54:17.235Z,89.06
2023-11-30T04:57:38.918Z,89.61
2023-11-30T05:01:00.802Z,89.33
2023-11-30T05:04:22.818Z,89.24
2023-11-30T05:07:44.639Z,89.30
2023-11-30T05:11:08.083Z,89.29
2023-11-30T05:14:29.817Z,88.49
2023-11-30T05:17:52.004Z,89.15
2023-11-30T05:21:13.940Z,88.63
2023-11-30T05:24:35.652Z,89.14
2023-11-30T05:27:59.533Z,89.55
2023-11-30T05:31:20.852Z,88.82
2023-11-30T05:34:42.808Z,89.13
2023-11-30T05:38:04.468Z,89.08
2023-11-30T05:41:26.040Z,89.41
2023-11-30T05:44:48.792Z,90.26
2023-11-30T05:48:10.410Z,89.27
2023-11-30T05:51:32.336Z,89.98
2023-11-30T05:54:55.998Z,89.49
2023-11-30T05:58:17.781Z,89.71
2023-11-30T06:01:40.803Z,89.80
2023-11-30T06:05:02.667Z,89.99
2023-11-30T06:08:25.654Z,89.61
2023-11-30T06:11:47.329Z,90.01
2023-11-30T06:15:10.854Z,88.45
2023-11-30T06:18:34.366Z,89.20
2023-11-30T06:21:56.235Z,88.82
2023-11-30T06:25:17.958Z,89.17
2023-11-30T06:28:39.656Z,89.78
2023-11-30T06:32:01.937Z,88.92
2023-11-30T06:35:24.962Z,88.96
2023-11-30T06:38:46.296Z,89.09
2023-11-30T06:42:08.211Z,89.21
2023-11-30T06:45:29.850Z,89.70
2023-11-30T06:48:52.467Z,90.62
2023-11-30T06:52:15.427Z,89.99
2023-11-30T06:55:36.738Z,90.63
2023-11-30T06:58:59.109Z,90.12
2023-11-30T07:02:20.751Z,89.70
2023-11-30T07:05:43.012Z,89.44
2023-11-30T07:09:07.025Z,90.40
2023-11-30T07:12:29.278Z,90.40
2023-11-30T07:15:51.512Z,89.95
2023-11-30T07:19:14.630Z,90.13
2023-11-30T07:22:36.821Z,90.44
2023-11-30T07:26:00.057Z,89.68
2023-11-30T07:29:26.367Z,88.88
2023-11-30T07:32:48.565Z,89.72
2023-11-30T07:36:15.017Z,88.73
2023-11-30T07:39:37.866Z,89.89
2023-11-30T07:43:01.030Z,88.94
2023-11-30T07:46:22.803Z,88.77
2023-11-30T07:49:44.827Z,88.44
2023-11-30T07:53:09.685Z,88.54
2023-11-30T07:56:31.446Z,88.35
2023-11-30T07:59:54.326Z,88.74
2023-11-30T08:03:16.143Z,89.03
2023-11-30T08:06:38.168Z,89.31
2023-11-30T08:10:00.348Z,88.38
2023-11-30T08:13:22.872Z,88.53
2023-11-30T08:16:46.335Z,87.26
2023-11-30T08:20:11.266Z,88.47
2023-11-30T08:23:34.466Z,88.27
2023-11-30T08:26:56.134Z,88.78
2023-11-30T08:30:18.607Z,89.29
2023-11-30T08:33:41.711Z,90.29
2023-11-30T08:37:03.536Z,90.51
2023-11-30T08:40:25.427Z,89.75
2023-11-30T08:43:46.841Z,90.97
2023-11-30T08:47:08.569Z,90.89
2023-11-30T08:50:31.827Z,91.59
2023-11-30T08:53:53.458Z,91.45
2023-11-30T08:57:15.067Z,91.87
2023-11-30T09:00:40.861Z,91.68
2023-11-30T09:04:06.034Z,91.07
2023-11-30T09:07:29.585Z,91.69
2023-11-30T09:10:51.413Z,91.30
2023-11-30T09:14:13.110Z,91.62
2023-11-30T09:17:35.116Z,91.00
2023-11-30T09:20:56.951Z,91.45
2023-11-30T09:24:23.304Z,91.58
2023-11-30T09:27:45.257Z,91.01
2023-11-30T09:31:08.065Z,91.27
2023-11-30T09:34:31.111Z,90.56
2023-11-30T09:37:52.448Z,90.64
2023-11-30T09:41:18.201Z,90.12
2023-11-30T09:44:40.216Z,90.62
2023-11-30T09:48:01.988Z,90.83
2023-11-30T09:51:27.845Z,90.08
2023-11-30T09:54:56.269Z,88.91
2023-11-30T09:58:19.401Z,89.76
2023-11-30T10:01:41.494Z,89.78
2023-11-30T10:05:04.287Z,89.70
2023-11-30T10:08:25.877Z,89.19
2023-11-30T10:11:47.634Z,87.89
2023-11-30T10:15:11.725Z,88.56
2023-11-30T10:18:34.582Z,88.59
2023-11-30T10:21:56.909Z,88.80
2023-11-30T10:25:18.856Z,88.46
2023-11-30T10:28:40.333Z,88.78
2023-11-30T10:32:06.301Z,88.40
2023-11-30T10:35:31.840Z,87.86
2023-11-30T10:38:59.426Z,88.11
2023-11-30T10:42:23.636Z,88.23
2023-11-30T10:45:47.390Z,87.95
2023-11-30T10:49:10.743Z,88.18
2023-11-30T10:52:33.592Z,88.25
2023-11-30T10:55:56.189Z,88.40
2023-11-30T10:59:17.952Z,88.96
2023-11-30T11:02:39.880Z,88.84
2023-11-30T11:06:06.860Z,88.87
2023-11-30T11:09:28.502Z,87.90
2023-11-30T11:12:53.645Z,87.92
2023-11-30T11:16:15.617Z,87.18
2023-11-30T11:19:41.624Z,84.29
2023-11-30T11:23:10.121Z,83.51
2023-11-30T11:26:42.856Z,82.69
2023-11-30T11:30:09.841Z,83.21
2023-11-30T11:33:31.719Z,82.44
2023-11-30T11:36:53.610Z,82.53
2023-11-30T11:40:18.354Z,82.34
2023-11-30T11:43:39.858Z,82.06
2023-11-30T11:47:01.953Z,82.32
2023-11-30T11:50:23.532Z,82.77
2023-11-30T11:53:45.171Z,82.14
2023-11-30T11:57:08.272Z,82.41
2023-11-30T12:00:31.186Z,83.75
2023-11-30T12:03:53.585Z,83.38
2023-11-30T12:07:17.493Z,84.06
2023-11-30T12:10:42.780Z,82.97
2023-11-30T12:14:06.903Z,82.76
2023-11-30T12:17:28.405Z,82.59
2023-11-30T12:20:50.731Z,81.10
2023-11-30T12:24:12.938Z,81.46
2023-11-30T12:27:34.721Z,78.83
2023-11-30T12:30:58.283Z,78.35
2023-11-30T12:34:21.005Z,77.70
2023-11-30T12:37:43.098Z,77.74
2023-11-30T12:41:05.177Z,77.84
2023-11-30T12:44:27.108Z,78.36
2023-11-30T12:47:50.840Z,77.78
2023-11-30T12:51:12.754Z,79.60
2023-11-30T12:54:35.003Z,79.13
2023-11-30T12:57:57.141Z,79.87
2023-11-30T13:01:19.064Z,80.56
2023-11-30T13:04:43.631Z,81.29
2023-11-30T13:08:05.382Z,80.30
2023-11-30T13:11:27.053Z,81.24
2023-11-30T13:14:57.297Z,81.49
2023-11-30T13:18:21.438Z,81.26
2023-11-30T13:21:46.409Z,80.62
2023-11-30T13:25:11.294Z,79.52
2023-11-30T13:28:37.933Z,80.30
2023-11-30T13:32:05.502Z,79.96
2023-11-30T13:35:27.992Z,81.57
2023-11-30T13:38:50.945Z,81.58
2023-11-30T13:42:12.580Z,81.80
2023-11-30T13:45:34.705Z,81.91
2023-11-30T13:48:56.362Z,82.53
2023-11-30T13:52:18.170Z,82.52
2023-11-30T13:55:43.290Z,82.45
2023-11-30T13:59:10.184Z,83.73
2023-11-30T14:02:32.965Z,84.17
2023-11-30T14:05:55.353Z,85.12
2023-11-30T14:09:27.078Z,85.36
2023-11-30T14:12:50.289Z,86.33
2023-11-30T14:16:12.871Z,86.01
2023-11-30T14:19:35.207Z,85.52
2023-11-30T14:22:57.305Z,86.19
2023-11-30T14:26:18.700Z,87.03
2023-11-30T14:29:42.178Z,87.03
2023-11-30T14:33:04.038Z,86.80
2023-11-30T14:36:26.148Z,86.66
2023-11-30T14:39:48.669Z,86.18
2023-11-30T14:43:10.703Z,86.75
2023-11-30T14:46:34.711Z,86.46
2023-11-30T14:49:56.587Z,86.78
2023-11-30T14:53:17.952Z,86.40
2023-11-30T14:56:40.885Z,86.01
2023-11-30T15:00:05.316Z,86.16
2023-11-30T15:03:28.469Z,85.79
2023-11-30T15:06:50.415Z,86.03
2023-11-30T15:10:13.043Z,85.90
2023-11-30T15:13:35.057Z,85.76
2023-11-30T15:16:56.535Z,85.88
2023-11-30T15:20:20.445Z,85.85
2023-11-30T15:23:43.695Z,85.88
2023-11-30T15:27:05.517Z,85.79
2023-11-30T15:30:27.807Z,85.77
2023-11-30T15:33:50.255Z,86.07
2023-11-30T15:37:13.322Z,86.41
2023-11-30T15:40:36.612Z,85.82
2023-11-30T15:43:58.381Z,86.34
2023-11-30T15:47:20.632Z,85.81
2023-11-30T15:50:42.736Z,85.88
2023-11-30T15:54:05.944Z,85.33
2023-11-30T15:57:27.599Z,85.75
2023-11-30T16:00:49.949Z,86.72
2023-11-30T16:04:12.308Z,86.85
2023-11-30T16:07:35.413Z,85.80
2023-11-30T16:10:58.320Z,86.12
2023-11-30T16:14:20.107Z,86.47
2023-11-30T16:17:42.305Z,85.97
2023-11-30T16:21:04.281Z,85.48
2023-11-30T16:24:25.855Z,85.67
2023-11-30T16:27:50.274Z,85.74
2023-11-30T16:31:12.124Z,85.53
2023-11-30T16:34:33.501Z,86.26
2023-11-30T16:37:55.870Z,86.48
2023-11-30T16:41:17.858Z,85.02
2023-11-30T16:44:42.970Z,85.92
2023-11-30T16:48:04.543Z,86.71
2023-11-30T16:51:26.776Z,85.13
2023-11-30T16:54:48.600Z,85.41
2023-11-30T16:58:10.187Z,85.22
2023-11-30T17:01:35.343Z,85.06
2023-11-30T17:04:57.578Z,86.08
2023-11-30T17:08:19.278Z,86.02
2023-11-30T17:11:40.926Z,85.50
2023-11-30T17:15:06.372Z,86.65
2023-11-30T17:18:29.647Z,85.56
2023-11-30T17:21:53.573Z,86.03
2023-11-30T17:25:16.949Z,86.15
2023-11-30T17:29:28.230Z,85.80
2023-11-30T17:32:50.413Z,86.77
2023-11-30T17:36:13.804Z,87.58
2023-11-30T17:39:35.708Z,86.17
2023-11-30T17:42:57.688Z,86.23
2023-11-30T17:46:19.521Z,86.37
2023-11-30T17:49:41.528Z,85.64
2023-11-30T17:53:05.927Z,86.60
2023-11-30T17:56:27.552Z,87.10
2023-11-30T17:59:49.482Z,85.84
2023-11-30T18:03:10.892Z,85.65
2023-11-30T18:06:33.225Z,86.11
2023-11-30T18:10:00.442Z,86.45
2023-11-30T18:13:22.364Z,85.94
2023-11-30T18:16:44.900Z,85.75
2023-11-30T18:20:07.294Z,85.72
2023-11-30T18:23:28.680Z,85.06
2023-11-30T18:26:51.623Z,84.49
2023-11-30T18:30:14.947Z,85.08
2023-11-30T18:33:36.506Z,84.48
2023-11-30T18:36:58.827Z,83.69
2023-11-30T18:40:21.350Z,83.70
2023-11-30T18:43:44.449Z,84.33
2023-11-30T18:47:06.441Z,83.79
2023-11-30T18:50:28.525Z,83.82
2023-11-30T18:53:50.369Z,84.42
2023-11-30T18:57:12.101Z,84.76
2023-11-30T19:00:35.530Z,84.94
2023-11-30T19:03:57.398Z,84.89
2023-11-30T19:07:18.794Z,84.49
2023-11-30T19:10:40.909Z,84.04
2023-11-30T19:14:02.443Z,83.58
2023-11-30T19:17:25.789Z,83.40
2023-11-30T19:20:47.317Z,83.33
2023-11-30T19:24:09.750Z,83.25
2023-11-30T19:27:31.874Z,82.60
2023-11-30T19:30:53.526Z,82.39
2023-11-30T19:34:16.988Z,82.35
2023-11-30T19:37:38.658Z,82.07
2023-11-30T19:41:00.842Z,82.67
2023-11-30T19:44:22.728Z,82.71
2023-11-30T19:47:45.024Z,83.17
2023-11-30T19:51:08.509Z,83.08
2023-11-30T19:54:30.101Z,83.21
2023-11-30T19:57:52.457Z,83.91
2023-11-30T20:01:14.195Z,84.05
2023-11-30T20:04:36.036Z,83.98
2023-11-30T20:07:59.308Z,83.39
2023-11-30T20:11:22.630Z,83.12
2023-11-30T20:14:44.845Z,83.58
2023-11-30T20:18:08.232Z,83.70
2023-11-30T20:21:30.198Z,83.26
2023-11-30T20:24:53.840Z,82.90
2023-11-30T20:28:15.886Z,83.13
2023-11-30T20:31:37.361Z,82.48
2023-11-30T20:34:59.367Z,82.22
2023-11-30T20:38:20.953Z,82.16
2023-11-30T20:41:45.250Z,82.51
2023-11-30T20:45:07.532Z,82.04
2023-11-30T20:48:29.431Z,83.02
2023-11-30T20:51:50.811Z,83.00
2023-11-30T20:55:13.097Z,83.02
2023-11-30T20:58:37.896Z,82.44
2023-11-30T21:02:01.052Z,82.07
2023-11-30T21:05:23.404Z,82.78
2023-11-30T21:08:45.310Z,82.78
2023-11-30T21:12:07.637Z,81.79
2023-11-30T21:15:30.987Z,82.11
2023-11-30T21:18:53.003Z,83.29
2023-11-30T21:22:14.841Z,83.78
2023-11-30T21:25:36.527Z,82.29
2023-11-30T21:28:57.944Z,83.33
2023-11-30T21:32:20.927Z,81.85
2023-11-30T21:35:42.798Z,82.31
2023-11-30T21:39:04.717Z,82.76
2023-11-30T21:42:26.581Z,81.35
2023-11-30T21:45:48.027Z,80.70
2023-11-30T21:49:11.621Z,81.59
2023-11-30T21:52:33.810Z,81.33
2023-11-30T21:55:55.475Z,80.63
2023-11-30T21:59:17.748Z,81.16
2023-11-30T22:02:39.999Z,81.03
2023-11-30T22:06:02.778Z,81.76
2023-11-30T22:09:24.117Z,81.54
2023-11-30T22:12:45.607Z,81.71
2023-11-30T22:16:12.661Z,82.40
2023-11-30T22:19:35.836Z,81.41
2023-11-30T22:22:58.856Z,81.51
2023-11-30T22:26:20.225Z,81.01
2023-11-30T22:29:43.557Z,81.69
2023-11-30T22:33:05.286Z,81.02
2023-11-30T22:36:27.040Z,80.95
2023-11-30T22:39:50.468Z,81.03
2023-11-30T22:43:12.551Z,82.09
2023-11-30T22:46:34.192Z,81.58
2023-11-30T22:49:56.250Z,81.94
2023-11-30T22:53:18.180Z,81.16
2023-11-30T22:56:41.205Z,81.90
2023-11-30T23:00:02.867Z,80.55
2023-11-30T23:03:25.004Z,81.29
2023-11-30T23:06:46.906Z,80.85
2023-11-30T23:10:13.243Z,80.36
2023-11-30T23:13:36.645Z,80.60
2023-11-30T23:16:58.735Z,80.33
2023-11-30T23:20:20.141Z,80.64
2023-11-30T23:23:42.334Z,80.28
2023-11-30T23:27:03.762Z,80.58
2023-11-30T23:30:26.482Z,79.88
2023-11-30T23:33:48.316Z,80.29
2023-11-30T23:37:10.409Z,79.73
2023-11-30T23:40:32.297Z,79.59
2023-11-30T23:43:53.989Z,80.28
2023-11-30T23:47:16.858Z,80.23
2023-11-30T23:50:38.313Z,80.72
2023-11-30T23:54:00.062Z,81.52
2023-11-30T23:57:21.712Z,80.50
